Time;durP1;ratioP1;P1;durP2;ratioP2;P2;SDS_P1;SDS_P2;PMS_P1;PMS_P2;Temp;Humidity;BMP_temperature;BMP_pressure;BME280_temperature;BME280_humidity;BME280_pressure;Samples;Min_cycle;Max_cycle;Signal;HPM_P1;HPM_P2
2022/04/16 00:00:55;;;;;;;2.00;1.90;;;;;;;;;;5109170;28;20199;-58
2022/04/16 00:03:23;;;;;;;2.30;2.10;;;;;;;;;;5096829;28;20203;-57
2022/04/16 00:05:51;;;;;;;1.98;1.88;;;;;;;;;;5106276;28;20199;-57
2022/04/16 00:08:20;;;;;;;2.10;1.90;;;;;;;;;;5120309;28;20476;-56
2022/04/16 00:10:48;;;;;;;2.35;2.15;;;;;;;;;;5120892;28;20218;-57
2022/04/16 00:13:17;;;;;;;1.95;1.85;;;;;;;;;;5120982;28;20525;-57
2022/04/16 00:15:44;;;;;;;2.00;1.90;;;;;;;;;;5121888;28;20555;-57
2022/04/16 00:18:13;;;;;;;2.08;1.98;;;;;;;;;;5109682;28;20559;-57
2022/04/16 00:20:41;;;;;;;2.03;1.92;;;;;;;;;;5100814;28;20207;-57
2022/04/16 00:23:08;;;;;;;2.40;2.20;;;;;;;;;;5101337;28;20204;-57
2022/04/16 00:25:37;;;;;;;2.33;2.13;;;;;;;;;;5100197;28;20496;-57
2022/04/16 00:28:08;;;;;;;2.22;2.05;;;;;;;;;;5100618;28;20223;-57
2022/04/16 00:30:37;;;;;;;2.33;2.13;;;;;;;;;;5101773;28;20221;-57
2022/04/16 00:33:05;;;;;;;2.17;2.08;;;;;;;;;;5100379;28;20281;-57
2022/04/16 00:35:33;;;;;;;1.95;1.85;;;;;;;;;;5103528;28;20207;-57
2022/04/16 00:38:00;;;;;;;2.47;2.28;;;;;;;;;;5102385;28;20199;-57
2022/04/16 00:40:27;;;;;;;2.05;1.95;;;;;;;;;;5101887;28;20206;-56
2022/04/16 00:42:57;;;;;;;2.28;2.10;;;;;;;;;;5121196;28;20195;-57
2022/04/16 00:45:25;;;;;;;2.40;2.20;;;;;;;;;;5122454;27;20304;-57
2022/04/16 00:47:53;;;;;;;2.45;2.25;;;;;;;;;;5137625;27;20255;-57
2022/04/16 00:50:21;;;;;;;2.10;2.00;;;;;;;;;;5120355;28;20283;-57
2022/04/16 00:52:49;;;;;;;2.60;2.40;;;;;;;;;;5120358;28;20211;-57
2022/04/16 00:55:17;;;;;;;2.08;1.98;;;;;;;;;;5120120;28;20462;-57
2022/04/16 00:57:44;;;;;;;2.50;2.10;;;;;;;;;;5120775;28;20203;-57
2022/04/16 01:00:14;;;;;;;2.40;2.20;;;;;;;;;;5133207;27;20228;-57
2022/04/16 01:02:42;;;;;;;2.30;2.10;;;;;;;;;;5140595;27;20199;-57
2022/04/16 01:05:12;;;;;;;2.38;2.17;;;;;;;;;;5140014;27;20221;-57
2022/04/16 01:07:52;;;;;;;2.20;2.00;;;;;;;;;;5137424;27;20234;-57
2022/04/16 01:10:20;;;;;;;2.40;2.20;;;;;;;;;;5104119;28;20319;-57
2022/04/16 01:12:47;;;;;;;2.40;2.20;;;;;;;;;;5128100;27;20195;-57
2022/04/16 01:15:17;;;;;;;2.00;1.90;;;;;;;;;;5140050;27;20578;-57
2022/04/16 01:17:45;;;;;;;2.30;2.10;;;;;;;;;;5140488;27;20731;-57
2022/04/16 01:20:12;;;;;;;2.30;2.10;;;;;;;;;;5125979;27;20225;-57
2022/04/16 01:22:41;;;;;;;1.80;1.70;;;;;;;;;;5119789;27;20305;-57
2022/04/16 01:25:09;;;;;;;2.22;2.03;;;;;;;;;;5132675;27;20198;-57
2022/04/16 01:27:39;;;;;;;2.55;2.35;;;;;;;;;;5138470;27;20209;-57
2022/04/16 01:30:06;;;;;;;2.10;2.00;;;;;;;;;;5139897;27;20282;-57
2022/04/16 01:32:34;;;;;;;2.30;2.10;;;;;;;;;;5140515;27;20202;-57
2022/04/16 01:35:02;;;;;;;2.50;2.33;;;;;;;;;;5139700;27;20208;-57
2022/04/16 01:37:33;;;;;;;2.60;2.40;;;;;;;;;;5137349;27;20213;-56
2022/04/16 01:40:02;;;;;;;2.10;2.00;;;;;;;;;;5121573;27;20194;-57
2022/04/16 01:42:32;;;;;;;2.33;2.15;;;;;;;;;;5137962;27;20194;-57
2022/04/16 01:45:00;;;;;;;2.33;2.13;;;;;;;;;;5130836;27;20281;-57
2022/04/16 01:47:28;;;;;;;2.33;2.13;;;;;;;;;;5130305;27;20222;-57
2022/04/16 01:49:56;;;;;;;2.42;2.22;;;;;;;;;;5138934;27;20218;-57
2022/04/16 01:52:23;;;;;;;2.42;2.22;;;;;;;;;;5099141;28;20200;-57
2022/04/16 01:54:51;;;;;;;2.78;2.58;;;;;;;;;;5120206;27;20208;-57
2022/04/16 01:57:19;;;;;;;2.55;2.35;;;;;;;;;;5140069;27;20203;-57
2022/04/16 01:59:47;;;;;;;2.30;2.10;;;;;;;;;;5133378;27;20617;-57
2022/04/16 02:02:14;;;;;;;2.20;2.08;;;;;;;;;;5133033;27;20199;-57
2022/04/16 02:04:42;;;;;;;2.05;1.95;;;;;;;;;;5138983;27;20206;-57
2022/04/16 02:07:11;;;;;;;2.30;2.10;;;;;;;;;;5119447;28;20271;-57
2022/04/16 02:09:38;;;;;;;2.47;2.30;;;;;;;;;;5118932;28;20234;-57
2022/04/16 02:12:06;;;;;;;2.45;2.25;;;;;;;;;;5118981;28;20588;-57
2022/04/16 02:14:36;;;;;;;2.15;2.03;;;;;;;;;;5119141;28;20245;-57
2022/04/16 02:17:04;;;;;;;2.22;2.13;;;;;;;;;;5120940;27;20203;-57
2022/04/16 02:19:32;;;;;;;2.40;2.20;;;;;;;;;;5138884;27;20206;-57
2022/04/16 02:21:59;;;;;;;2.20;2.00;;;;;;;;;;5139643;27;20248;-57
2022/04/16 02:24:27;;;;;;;2.28;2.08;;;;;;;;;;5139323;27;20256;-57
2022/04/16 02:26:56;;;;;;;2.28;2.08;;;;;;;;;;5139376;27;20240;-57
2022/04/16 02:29:24;;;;;;;2.40;2.20;;;;;;;;;;5139467;27;20287;-57
2022/04/16 02:31:53;;;;;;;1.80;1.70;;;;;;;;;;5139503;27;20194;-57
2022/04/16 02:34:21;;;;;;;2.20;2.10;;;;;;;;;;5139372;27;20284;-57
2022/04/16 02:36:51;;;;;;;2.72;2.30;;;;;;;;;;5139481;27;20202;-57
2022/04/16 02:39:18;;;;;;;2.05;1.90;;;;;;;;;;5136359;27;20255;-57
2022/04/16 02:41:45;;;;;;;2.00;1.90;;;;;;;;;;5118554;27;20561;-57
2022/04/16 02:47:08;;;;;;;2.10;2.00;;;;;;;;;;5082165;28;20238;-57
2022/04/16 02:49:36;;;;;;;2.67;2.47;;;;;;;;;;5086828;28;20322;-57
2022/04/16 02:52:04;;;;;;;1.90;1.80;;;;;;;;;;5097480;28;20665;-57
2022/04/16 02:54:31;;;;;;;2.30;2.10;;;;;;;;;;5105624;28;20194;-57
2022/04/16 02:57:00;;;;;;;2.47;2.28;;;;;;;;;;5118364;28;20221;-57
2022/04/16 02:59:30;;;;;;;2.45;2.25;;;;;;;;;;5110388;28;20223;-58
2022/04/16 03:01:59;;;;;;;2.30;2.10;;;;;;;;;;5098015;28;20210;-57
2022/04/16 03:04:27;;;;;;;2.03;1.92;;;;;;;;;;5098937;28;20202;-57
2022/04/16 03:06:55;;;;;;;2.05;1.95;;;;;;;;;;5098158;28;20333;-57
2022/04/16 03:09:22;;;;;;;2.40;2.20;;;;;;;;;;5114485;28;20287;-57
2022/04/16 03:11:50;;;;;;;2.35;2.15;;;;;;;;;;5117896;28;20210;-57
2022/04/16 03:19:49;;;;;;;2.15;1.95;;;;;;;;;;5106372;28;20226;-57
2022/04/16 03:22:16;;;;;;;2.15;1.95;;;;;;;;;;5117795;28;20204;-58
2022/04/16 03:24:44;;;;;;;2.33;2.13;;;;;;;;;;5117690;28;20191;-57
2022/04/16 03:27:11;;;;;;;2.13;1.98;;;;;;;;;;5116538;28;20314;-57
2022/04/16 03:29:39;;;;;;;2.20;2.00;;;;;;;;;;5117740;28;20694;-57
2022/04/16 03:32:09;;;;;;;2.33;2.13;;;;;;;;;;5118283;28;20276;-57
2022/04/16 03:34:37;;;;;;;2.17;2.08;;;;;;;;;;5117376;28;20210;-57
2022/04/16 03:37:04;;;;;;;2.30;2.10;;;;;;;;;;5117926;28;20206;-57
2022/04/16 03:39:32;;;;;;;1.98;1.88;;;;;;;;;;5102706;28;20192;-57
2022/04/16 03:41:59;;;;;;;1.80;1.70;;;;;;;;;;5118521;28;20484;-57
2022/04/16 03:44:27;;;;;;;1.88;1.77;;;;;;;;;;5120932;28;20613;-57
2022/04/16 03:46:54;;;;;;;1.73;1.63;;;;;;;;;;5124721;27;20234;-57
2022/04/16 03:49:23;;;;;;;2.15;1.95;;;;;;;;;;5121353;28;20607;-57
2022/04/16 03:51:51;;;;;;;2.00;1.90;;;;;;;;;;5131939;27;20194;-57
2022/04/16 04:00:00;;;;;;;2.25;2.05;;;;;;;;;;5135375;27;20739;-57
2022/04/16 04:02:27;;;;;;;1.90;1.80;;;;;;;;;;5137080;27;20217;-57
2022/04/16 04:04:57;;;;;;;1.92;1.83;;;;;;;;;;5139771;27;20202;-57
2022/04/16 04:07:25;;;;;;;1.65;1.55;;;;;;;;;;5121690;28;20202;-57
2022/04/16 04:09:53;;;;;;;1.90;1.80;;;;;;;;;;5121204;28;20237;-57
2022/04/16 04:12:20;;;;;;;2.00;1.90;;;;;;;;;;5121580;28;20203;-57
2022/04/16 04:14:48;;;;;;;2.00;1.90;;;;;;;;;;5121666;28;20217;-57
2022/04/16 04:17:15;;;;;;;2.13;1.95;;;;;;;;;;5124967;27;20202;-57
2022/04/16 04:19:43;;;;;;;2.10;2.00;;;;;;;;;;5142443;27;20205;-57
2022/04/16 04:22:13;;;;;;;2.17;1.98;;;;;;;;;;5141920;27;20213;-57
2022/04/16 04:24:41;;;;;;;1.90;1.80;;;;;;;;;;5141636;27;20221;-57
2022/04/16 04:27:09;;;;;;;1.88;1.77;;;;;;;;;;5141945;27;20202;-57
2022/04/16 04:29:37;;;;;;;2.15;1.98;;;;;;;;;;5141641;27;20236;-57
2022/04/16 04:32:04;;;;;;;1.98;1.88;;;;;;;;;;5141758;27;20214;-57
2022/04/16 04:34:32;;;;;;;1.65;1.55;;;;;;;;;;5141574;27;20493;-58
2022/04/16 04:36:59;;;;;;;1.77;1.67;;;;;;;;;;5141768;27;20228;-57
2022/04/16 04:39:28;;;;;;;1.83;1.73;;;;;;;;;;5135932;27;20191;-57
2022/04/16 04:41:55;;;;;;;2.35;2.15;;;;;;;;;;5120813;28;20479;-56
2022/04/16 04:44:23;;;;;;;2.00;1.90;;;;;;;;;;5119873;28;20199;-58
2022/04/16 04:46:50;;;;;;;1.98;1.88;;;;;;;;;;5127470;27;20612;-57
2022/04/16 04:49:17;;;;;;;1.80;1.70;;;;;;;;;;5128526;27;20195;-57
2022/04/16 04:51:45;;;;;;;1.52;1.42;;;;;;;;;;5119950;28;20213;-57
2022/04/16 04:54:12;;;;;;;1.52;1.42;;;;;;;;;;5119357;28;20203;-57
2022/04/16 04:56:41;;;;;;;1.90;1.80;;;;;;;;;;5119912;28;20203;-57
2022/04/16 04:59:09;;;;;;;1.90;1.80;;;;;;;;;;5119450;28;20232;-57
2022/04/16 05:01:36;;;;;;;1.58;1.48;;;;;;;;;;5121458;27;20207;-57
2022/04/16 05:04:03;;;;;;;1.80;1.70;;;;;;;;;;5120526;28;20197;-57
2022/04/16 05:06:31;;;;;;;1.65;1.55;;;;;;;;;;5120204;28;20211;-56
2022/04/16 05:08:58;;;;;;;1.80;1.70;;;;;;;;;;5135273;27;20221;-55
2022/04/16 05:11:26;;;;;;;1.67;1.58;;;;;;;;;;5141046;27;20241;-55
2022/04/16 05:13:55;;;;;;;2.10;1.90;;;;;;;;;;5140619;27;20205;-56
2022/04/16 05:16:22;;;;;;;1.90;1.80;;;;;;;;;;5141042;27;20202;-56
2022/04/16 05:18:49;;;;;;;1.60;1.50;;;;;;;;;;5138205;27;20238;-55
2022/04/16 05:21:17;;;;;;;1.60;1.50;;;;;;;;;;5125407;27;20204;-55
2022/04/16 05:23:44;;;;;;;1.65;1.55;;;;;;;;;;5139438;27;20539;-55
2022/04/16 05:26:12;;;;;;;2.00;1.90;;;;;;;;;;5140335;27;20202;-56
2022/04/16 05:28:40;;;;;;;1.73;1.63;;;;;;;;;;5139328;27;20195;-55
2022/04/16 05:31:09;;;;;;;1.80;1.70;;;;;;;;;;5139885;27;20229;-56
2022/04/16 05:36:21;;;;;;;1.90;1.80;;;;;;;;;;5139652;27;20464;-56
2022/04/16 05:38:49;;;;;;;1.73;1.63;;;;;;;;;;5125997;27;20542;-56
2022/04/16 05:41:16;;;;;;;1.50;1.40;;;;;;;;;;5136505;27;20194;-57
2022/04/16 05:43:44;;;;;;;1.73;1.63;;;;;;;;;;5137675;27;20209;-57
2022/04/16 05:46:13;;;;;;;1.50;1.40;;;;;;;;;;5119278;28;20241;-56
2022/04/16 05:48:40;;;;;;;1.50;1.40;;;;;;;;;;5135245;27;20199;-56
2022/04/16 05:51:07;;;;;;;1.60;1.50;;;;;;;;;;5140200;27;20229;-57
2022/04/16 05:53:35;;;;;;;1.88;1.77;;;;;;;;;;5138406;27;20206;-56
2022/04/16 05:56:02;;;;;;;1.77;1.67;;;;;;;;;;5118942;28;20209;-57
2022/04/16 05:58:30;;;;;;;1.55;1.45;;;;;;;;;;5118279;28;20194;-57
2022/04/16 06:00:57;;;;;;;1.83;1.73;;;;;;;;;;5125197;27;20191;-57
2022/04/16 06:03:26;;;;;;;1.50;1.40;;;;;;;;;;5139880;27;20680;-57
2022/04/16 06:05:54;;;;;;;1.70;1.60;;;;;;;;;;5127743;27;20203;-57
2022/04/16 06:08:21;;;;;;;1.60;1.50;;;;;;;;;;5118960;28;20372;-57
2022/04/16 06:10:49;;;;;;;1.50;1.40;;;;;;;;;;5118261;28;20227;-57
2022/04/16 06:13:16;;;;;;;1.40;1.30;;;;;;;;;;5118084;28;20209;-57
2022/04/16 06:15:44;;;;;;;1.60;1.50;;;;;;;;;;5118936;28;20203;-57
2022/04/16 06:18:12;;;;;;;1.55;1.42;;;;;;;;;;5130175;27;20198;-57
2022/04/16 06:20:40;;;;;;;1.50;1.40;;;;;;;;;;5138326;27;20471;-57
2022/04/16 06:23:08;;;;;;;1.48;1.38;;;;;;;;;;5138054;27;20202;-57
2022/04/16 06:25:36;;;;;;;1.70;1.60;;;;;;;;;;5138061;27;20205;-57
2022/04/16 06:28:04;;;;;;;1.50;1.40;;;;;;;;;;5138073;27;20208;-57
2022/04/16 06:30:31;;;;;;;1.42;1.33;;;;;;;;;;5137263;27;20214;-57
2022/04/16 06:32:58;;;;;;;1.58;1.48;;;;;;;;;;5126350;27;20198;-57
2022/04/16 06:35:25;;;;;;;1.50;1.40;;;;;;;;;;5117801;27;20198;-57
2022/04/16 06:37:54;;;;;;;1.40;1.30;;;;;;;;;;5117477;28;20191;-57
2022/04/16 06:40:22;;;;;;;1.80;1.70;;;;;;;;;;5129047;27;20198;-57
2022/04/16 06:42:52;;;;;;;1.45;1.35;;;;;;;;;;5138055;27;20203;-56
2022/04/16 06:45:19;;;;;;;1.60;1.50;;;;;;;;;;5131131;27;20205;-57
2022/04/16 06:47:47;;;;;;;1.58;1.48;;;;;;;;;;5118085;28;20210;-56
2022/04/16 06:50:14;;;;;;;1.38;1.30;;;;;;;;;;5116022;28;20222;-57
2022/04/16 06:52:41;;;;;;;1.55;1.30;;;;;;;;;;5115817;28;20470;-57
2022/04/16 06:55:10;;;;;;;1.45;1.35;;;;;;;;;;5121523;27;20209;-57
2022/04/16 06:57:38;;;;;;;1.65;1.33;;;;;;;;;;5137552;27;20198;-56
2022/04/16 07:00:06;;;;;;;1.40;1.30;;;;;;;;;;5134723;27;20194;-57
2022/04/16 07:02:33;;;;;;;1.77;1.67;;;;;;;;;;5138371;27;20206;-57
2022/04/16 07:05:02;;;;;;;1.58;1.48;;;;;;;;;;5136970;27;20198;-56
2022/04/16 07:07:30;;;;;;;1.50;1.40;;;;;;;;;;5134665;27;20585;-56
2022/04/16 07:09:57;;;;;;;1.30;1.25;;;;;;;;;;5116408;28;20199;-56
2022/04/16 07:12:26;;;;;;;1.50;1.40;;;;;;;;;;5115095;28;20337;-57
2022/04/16 07:14:53;;;;;;;1.50;1.40;;;;;;;;;;5115483;28;20472;-56
2022/04/16 07:17:21;;;;;;;1.42;1.33;;;;;;;;;;5115529;28;20214;-57
2022/04/16 07:19:48;;;;;;;1.30;1.20;;;;;;;;;;5116387;28;20202;-56
2022/04/16 07:22:20;;;;;;;1.52;1.30;;;;;;;;;;5117004;28;20541;-56
2022/04/16 07:24:48;;;;;;;1.30;1.20;;;;;;;;;;5116099;28;20275;-57
2022/04/16 07:27:16;;;;;;;1.50;1.40;;;;;;;;;;5116328;28;20214;-57
2022/04/16 07:29:46;;;;;;;1.50;1.40;;;;;;;;;;5123315;27;20287;-56
2022/04/16 07:32:13;;;;;;;1.10;1.10;;;;;;;;;;5115836;28;20237;-57
2022/04/16 07:34:41;;;;;;;1.40;1.30;;;;;;;;;;5125830;28;20194;-57
2022/04/16 07:37:09;;;;;;;1.98;1.45;;;;;;;;;;5137416;28;20202;-57
2022/04/16 07:39:36;;;;;;;1.48;1.38;;;;;;;;;;5120499;28;20259;-57
2022/04/16 07:42:04;;;;;;;1.40;1.30;;;;;;;;;;5136757;27;20259;-57
2022/04/16 07:44:31;;;;;;;1.48;1.20;;;;;;;;;;5128469;28;20210;-56
2022/04/16 07:47:00;;;;;;;1.48;1.38;;;;;;;;;;5113143;28;20243;-57
2022/04/16 07:49:27;;;;;;;1.42;1.33;;;;;;;;;;5094827;28;20211;-56
2022/04/16 07:51:55;;;;;;;1.58;1.48;;;;;;;;;;5115046;28;20233;-56
2022/04/16 07:54:22;;;;;;;1.30;1.20;;;;;;;;;;5105627;28;20200;-56
2022/04/16 07:56:49;;;;;;;1.40;1.30;;;;;;;;;;5102626;28;20200;-56
2022/04/16 07:59:17;;;;;;;1.70;1.17;;;;;;;;;;5100047;28;20195;-56
2022/04/16 08:01:44;;;;;;;1.30;1.25;;;;;;;;;;5101552;28;20195;-57
2022/04/16 08:04:13;;;;;;;1.40;1.30;;;;;;;;;;5094538;28;20204;-57
2022/04/16 08:06:41;;;;;;;1.50;1.40;;;;;;;;;;5075228;28;20207;-56
2022/04/16 08:09:08;;;;;;;1.55;1.45;;;;;;;;;;5073253;28;20215;-56
2022/04/16 08:11:35;;;;;;;1.08;1.08;;;;;;;;;;5074083;28;20238;-56
2022/04/16 08:14:04;;;;;;;1.40;1.30;;;;;;;;;;5073446;28;20613;-56
2022/04/16 08:16:32;;;;;;;1.40;1.30;;;;;;;;;;5075609;28;20215;-57
2022/04/16 08:18:59;;;;;;;1.40;1.30;;;;;;;;;;5113898;28;20207;-56
2022/04/16 08:21:28;;;;;;;1.38;1.27;;;;;;;;;;5113207;28;20199;-57
2022/04/16 08:24:04;;;;;;;1.45;1.35;;;;;;;;;;5114197;28;20199;-57
2022/04/16 08:26:31;;;;;;;1.35;1.27;;;;;;;;;;5115071;28;20267;-58
2022/04/16 08:28:59;;;;;;;1.42;1.20;;;;;;;;;;5115840;28;20217;-56
2022/04/16 08:31:27;;;;;;;1.20;1.10;;;;;;;;;;5101822;28;20220;-58
2022/04/16 08:33:54;;;;;;;0.90;0.90;;;;;;;;;;5112227;28;20323;-56
2022/04/16 08:36:21;;;;;;;1.30;1.20;;;;;;;;;;5097129;28;20196;-56
2022/04/16 08:38:50;;;;;;;1.48;1.38;;;;;;;;;;5105416;28;20506;-56
2022/04/16 08:41:18;;;;;;;1.00;1.00;;;;;;;;;;5104353;28;20208;-57
2022/04/16 08:43:46;;;;;;;1.40;1.30;;;;;;;;;;5097536;28;20556;-56
2022/04/16 08:46:13;;;;;;;1.60;1.10;;;;;;;;;;5101002;28;20656;-57
2022/04/16 08:48:41;;;;;;;1.30;1.20;;;;;;;;;;5116368;28;20202;-56
2022/04/16 08:51:10;;;;;;;1.05;1.05;;;;;;;;;;5118049;28;20262;-56
2022/04/16 08:53:37;;;;;;;1.10;1.10;;;;;;;;;;5117216;28;20594;-57
2022/04/16 08:56:06;;;;;;;0.95;0.95;;;;;;;;;;5116409;28;20597;-56
2022/04/16 08:58:34;;;;;;;1.02;1.02;;;;;;;;;;5117107;28;20205;-56
2022/04/16 09:01:01;;;;;;;1.20;1.10;;;;;;;;;;5116394;28;20191;-56
2022/04/16 09:03:33;;;;;;;1.38;1.27;;;;;;;;;;5116629;28;20195;-56
2022/04/16 09:06:00;;;;;;;1.30;1.20;;;;;;;;;;5117456;28;20207;-57
2022/04/16 09:08:30;;;;;;;1.08;1.08;;;;;;;;;;5116506;28;20199;-57
2022/04/16 09:11:11;;;;;;;1.05;1.02;;;;;;;;;;5116288;28;20233;-56
2022/04/16 09:13:42;;;;;;;1.23;1.00;;;;;;;;;;5115885;28;20195;-57
2022/04/16 09:16:10;;;;;;;0.93;0.93;;;;;;;;;;5115246;28;20538;-56
2022/04/16 09:18:55;;;;;;;1.10;1.02;;;;;;;;;;5116780;28;20420;-57
2022/04/16 09:21:26;;;;;;;1.00;1.00;;;;;;;;;;5116221;28;20199;-57
2022/04/16 09:23:54;;;;;;;1.05;1.05;;;;;;;;;;5116386;28;20222;-57
2022/04/16 09:26:33;;;;;;;1.25;1.13;;;;;;;;;;5116400;28;20253;-57
2022/04/16 09:29:08;;;;;;;1.10;1.10;;;;;;;;;;5115759;28;20206;-57
2022/04/16 09:31:35;;;;;;;1.15;1.05;;;;;;;;;;5116086;28;20235;-56
2022/04/16 09:34:03;;;;;;;1.08;0.98;;;;;;;;;;5115966;28;20203;-57
2022/04/16 09:36:30;;;;;;;1.00;1.00;;;;;;;;;;5115029;28;20206;-56
2022/04/16 09:39:02;;;;;;;1.00;0.90;;;;;;;;;;5114287;28;20211;-57
2022/04/16 09:41:38;;;;;;;1.17;1.08;;;;;;;;;;5114304;28;20195;-56
2022/04/16 09:44:06;;;;;;;1.20;1.10;;;;;;;;;;5114391;28;20198;-56
2022/04/16 09:46:33;;;;;;;0.90;0.90;;;;;;;;;;5122332;27;20222;-56
2022/04/16 09:49:03;;;;;;;0.90;0.90;;;;;;;;;;5128160;27;20245;-56
2022/04/16 09:51:35;;;;;;;1.08;1.08;;;;;;;;;;5114250;28;20229;-57
2022/04/16 09:54:06;;;;;;;1.27;1.08;;;;;;;;;;5100273;28;20199;-57
2022/04/16 09:56:34;;;;;;;0.95;0.85;;;;;;;;;;5113391;28;20210;-57
2022/04/16 09:59:04;;;;;;;1.48;0.90;;;;;;;;;;5102689;27;20276;-57
2022/04/16 10:01:32;;;;;;;1.30;1.10;;;;;;;;;;5125209;27;20229;-57
2022/04/16 10:04:00;;;;;;;1.83;1.15;;;;;;;;;;5115478;28;20677;-56
2022/04/16 10:06:28;;;;;;;1.08;0.90;;;;;;;;;;5133475;27;20191;-57
2022/04/16 10:08:56;;;;;;;0.77;0.77;;;;;;;;;;5136792;27;20224;-57
2022/04/16 10:11:42;;;;;;;1.10;1.00;;;;;;;;;;5136568;27;20539;-57
2022/04/16 10:14:17;;;;;;;1.35;1.25;;;;;;;;;;5120860;27;20221;-57
2022/04/16 10:16:50;;;;;;;1.13;1.00;;;;;;;;;;5118110;27;20202;-57
2022/04/16 10:19:20;;;;;;;0.90;0.90;;;;;;;;;;5115585;28;20211;-57
2022/04/16 10:21:47;;;;;;;1.10;0.90;;;;;;;;;;5115131;28;20199;-57
2022/04/16 10:24:25;;;;;;;1.13;0.90;;;;;;;;;;5113595;28;20459;-57
2022/04/16 10:26:53;;;;;;;0.95;0.80;;;;;;;;;;5115294;28;20203;-57
2022/04/16 10:29:22;;;;;;;1.30;0.80;;;;;;;;;;5116825;28;20499;-57
2022/04/16 10:31:51;;;;;;;1.15;0.93;;;;;;;;;;5114719;28;20640;-57
2022/04/16 10:34:20;;;;;;;1.20;1.10;;;;;;;;;;5105823;27;20187;-57
2022/04/16 10:36:52;;;;;;;1.25;0.90;;;;;;;;;;5113703;28;20207;-57
2022/04/16 10:39:19;;;;;;;0.70;0.70;;;;;;;;;;5131787;27;20198;-57
2022/04/16 10:41:56;;;;;;;0.98;0.88;;;;;;;;;;5133377;27;20191;-57
2022/04/16 10:44:25;;;;;;;1.20;0.82;;;;;;;;;;5134808;27;20189;-57
2022/04/16 10:46:54;;;;;;;1.33;0.90;;;;;;;;;;5119563;27;20230;-60
2022/04/16 10:49:22;;;;;;;0.80;0.80;;;;;;;;;;5098968;28;20493;-57
2022/04/16 10:51:50;;;;;;;1.08;0.90;;;;;;;;;;5092380;28;20286;-57
2022/04/16 10:54:27;;;;;;;1.05;0.95;;;;;;;;;;5093498;28;20223;-57
2022/04/16 10:56:55;;;;;;;1.00;0.90;;;;;;;;;;5092962;28;20238;-57
2022/04/16 10:59:36;;;;;;;0.98;0.82;;;;;;;;;;5093375;28;20548;-57
2022/04/16 11:02:04;;;;;;;0.98;0.75;;;;;;;;;;5077188;28;20184;-57
2022/04/16 11:04:32;;;;;;;1.15;0.95;;;;;;;;;;5099627;28;20195;-57
2022/04/16 11:06:59;;;;;;;0.80;0.80;;;;;;;;;;5105371;28;20492;-57
2022/04/16 11:09:26;;;;;;;0.80;0.80;;;;;;;;;;5092026;28;20203;-57
2022/04/16 11:11:54;;;;;;;1.08;0.90;;;;;;;;;;5092747;28;20641;-57
2022/04/16 11:14:21;;;;;;;1.48;0.80;;;;;;;;;;5093520;28;20207;-57
2022/04/16 11:16:50;;;;;;;0.88;0.70;;;;;;;;;;5093642;28;20212;-57
2022/04/16 11:19:18;;;;;;;1.13;0.90;;;;;;;;;;5101592;28;20295;-57
2022/04/16 11:21:46;;;;;;;1.15;0.90;;;;;;;;;;5113007;28;20198;-57
2022/04/16 11:24:14;;;;;;;1.23;1.08;;;;;;;;;;5099671;28;20202;-57
2022/04/16 11:34:58;;;;;;;0.80;0.80;;;;;;;;;;5098992;28;20468;-57
2022/04/16 11:37:26;;;;;;;1.58;0.80;;;;;;;;;;5110367;28;20204;-57
2022/04/16 11:40:01;;;;;;;0.88;0.70;;;;;;;;;;5096797;28;20195;-57
2022/04/16 11:42:28;;;;;;;0.70;0.70;;;;;;;;;;5109697;28;20221;-57
2022/04/16 11:44:55;;;;;;;1.00;0.80;;;;;;;;;;5112785;28;20199;-57
2022/04/16 11:47:25;;;;;;;0.75;0.75;;;;;;;;;;5112733;27;20356;-57
2022/04/16 11:49:54;;;;;;;0.80;0.80;;;;;;;;;;5095182;28;20196;-57
2022/04/16 11:52:25;;;;;;;0.77;0.77;;;;;;;;;;5112577;28;20500;-56
2022/04/16 11:55:00;;;;;;;0.80;0.80;;;;;;;;;;5112505;28;20201;-57
2022/04/16 11:57:28;;;;;;;0.73;0.70;;;;;;;;;;5113544;28;20207;-57
2022/04/16 11:59:59;;;;;;;0.73;0.73;;;;;;;;;;5103560;28;20214;-57
2022/04/16 12:02:34;;;;;;;0.95;0.90;;;;;;;;;;5112541;28;20597;-57
2022/04/16 12:05:22;;;;;;;0.70;0.70;;;;;;;;;;5115805;28;20198;-57
2022/04/16 12:07:50;;;;;;;0.73;0.73;;;;;;;;;;5110048;28;20217;-57
2022/04/16 12:10:18;;;;;;;0.77;0.77;;;;;;;;;;5116238;28;20202;-57
2022/04/16 12:12:47;;;;;;;0.80;0.80;;;;;;;;;;5115384;28;20233;-57
2022/04/16 12:15:20;;;;;;;0.75;0.75;;;;;;;;;;5116038;28;20463;-57
2022/04/16 12:17:49;;;;;;;0.90;0.80;;;;;;;;;;5114796;28;20195;-57
2022/04/16 12:20:16;;;;;;;0.70;0.70;;;;;;;;;;5115537;28;20198;-57
2022/04/16 12:22:48;;;;;;;0.90;0.75;;;;;;;;;;5113870;28;20203;-57
2022/04/16 12:25:16;;;;;;;0.85;0.82;;;;;;;;;;5114829;28;20369;-57
2022/04/16 12:27:47;;;;;;;0.70;0.70;;;;;;;;;;5115244;28;20203;-57
2022/04/16 12:30:15;;;;;;;0.70;0.70;;;;;;;;;;5115616;28;20199;-56
2022/04/16 12:32:43;;;;;;;0.70;0.70;;;;;;;;;;5114834;28;20748;-57
2022/04/16 12:35:12;;;;;;;0.70;0.70;;;;;;;;;;5113840;28;20656;-57
2022/04/16 12:37:39;;;;;;;1.00;0.90;;;;;;;;;;5112874;28;20203;-56
2022/04/16 12:40:07;;;;;;;1.45;0.85;;;;;;;;;;5111838;28;20198;-57
2022/04/16 12:42:35;;;;;;;0.80;0.80;;;;;;;;;;5098091;28;20200;-57
2022/04/16 12:45:02;;;;;;;0.80;0.80;;;;;;;;;;5114641;28;20199;-57
2022/04/16 12:47:30;;;;;;;0.90;0.90;;;;;;;;;;5114556;28;20238;-57
2022/04/16 12:49:57;;;;;;;1.00;0.90;;;;;;;;;;5114915;28;20206;-56
2022/04/16 12:52:26;;;;;;;1.05;1.00;;;;;;;;;;5114911;28;20219;-57
2022/04/16 12:54:53;;;;;;;1.08;1.00;;;;;;;;;;5114854;28;20218;-57
2022/04/16 12:57:20;;;;;;;0.80;0.80;;;;;;;;;;5114469;28;20199;-57
2022/04/16 12:59:48;;;;;;;1.08;1.08;;;;;;;;;;5113425;28;20590;-57
2022/04/16 13:02:19;;;;;;;1.00;0.90;;;;;;;;;;5114294;28;20609;-57
2022/04/16 13:04:47;;;;;;;0.60;0.60;;;;;;;;;;5101638;28;20204;-56
2022/04/16 13:07:14;;;;;;;1.23;0.90;;;;;;;;;;5108115;28;20199;-56
2022/04/16 13:09:43;;;;;;;1.17;0.80;;;;;;;;;;5113194;28;20199;-57
2022/04/16 13:12:10;;;;;;;1.13;0.90;;;;;;;;;;5113570;28;20229;-57
2022/04/16 13:14:39;;;;;;;1.10;1.00;;;;;;;;;;5113474;28;20190;-57
2022/04/16 13:17:06;;;;;;;0.98;0.77;;;;;;;;;;5114841;28;20195;-57
2022/04/16 13:19:34;;;;;;;1.23;0.90;;;;;;;;;;5107011;28;20311;-57
2022/04/16 13:22:01;;;;;;;1.10;1.00;;;;;;;;;;5114076;28;20203;-56
2022/04/16 13:24:28;;;;;;;0.90;0.90;;;;;;;;;;5109671;28;20223;-57
2022/04/16 13:26:57;;;;;;;0.90;0.90;;;;;;;;;;5102825;28;20196;-57
2022/04/16 13:29:25;;;;;;;1.02;0.90;;;;;;;;;;5093678;28;20217;-56
2022/04/16 13:31:53;;;;;;;0.80;0.80;;;;;;;;;;5112578;28;20410;-57
2022/04/16 13:34:20;;;;;;;1.05;0.95;;;;;;;;;;5113102;28;20203;-57
2022/04/16 13:36:48;;;;;;;0.73;0.73;;;;;;;;;;5113592;28;20207;-57
2022/04/16 13:41:58;;;;;;;1.00;0.90;;;;;;;;;;5097576;28;20196;-56
2022/04/16 13:44:25;;;;;;;0.85;0.85;;;;;;;;;;5113831;28;20205;-56
2022/04/16 13:46:53;;;;;;;1.25;0.90;;;;;;;;;;5109088;28;20231;-56
2022/04/16 13:49:20;;;;;;;1.00;0.88;;;;;;;;;;5113464;28;20332;-56
2022/04/16 13:51:48;;;;;;;1.42;1.10;;;;;;;;;;5111288;28;20194;-56
2022/04/16 13:54:15;;;;;;;1.17;0.90;;;;;;;;;;5112975;28;20218;-56
2022/04/16 13:56:43;;;;;;;1.20;0.90;;;;;;;;;;5114859;28;20203;-56
2022/04/16 13:59:11;;;;;;;0.90;0.90;;;;;;;;;;5111253;28;20218;-56
2022/04/16 14:01:39;;;;;;;1.45;1.30;;;;;;;;;;5104017;28;20210;-56
2022/04/16 14:04:06;;;;;;;1.30;1.20;;;;;;;;;;5113272;28;20203;-56
2022/04/16 14:06:34;;;;;;;1.05;0.95;;;;;;;;;;5095922;28;20200;-56
2022/04/16 14:09:01;;;;;;;1.77;1.20;;;;;;;;;;5092587;28;20195;-56
2022/04/16 14:11:29;;;;;;;1.20;1.10;;;;;;;;;;5094059;28;20214;-55
2022/04/16 14:13:57;;;;;;;1.55;1.27;;;;;;;;;;5092689;28;20318;-57
2022/04/16 14:16:25;;;;;;;2.05;1.42;;;;;;;;;;5094155;28;20215;-56
2022/04/16 14:18:53;;;;;;;1.85;1.42;;;;;;;;;;5112340;28;20258;-57
2022/04/16 14:21:21;;;;;;;1.35;1.25;;;;;;;;;;5113373;28;20202;-57
2022/04/16 14:23:48;;;;;;;2.03;1.60;;;;;;;;;;5113291;28;20294;-57
2022/04/16 14:26:15;;;;;;;2.05;1.45;;;;;;;;;;5114029;28;20229;-56
2022/04/16 14:28:43;;;;;;;1.73;1.52;;;;;;;;;;5114683;28;20511;-57
2022/04/16 14:31:10;;;;;;;2.40;1.98;;;;;;;;;;5114238;28;20203;-56
2022/04/16 14:33:39;;;;;;;1.90;1.70;;;;;;;;;;5114591;28;20219;-56
2022/04/16 14:36:07;;;;;;;2.13;1.67;;;;;;;;;;5112831;28;20202;-57
2022/04/16 14:38:39;;;;;;;2.33;1.40;;;;;;;;;;5112358;28;20218;-56
2022/04/16 14:41:17;;;;;;;2.13;1.77;;;;;;;;;;5112319;28;20329;-56
2022/04/16 14:43:50;;;;;;;1.95;1.60;;;;;;;;;;5113993;28;20187;-56
2022/04/16 14:46:18;;;;;;;2.63;1.60;;;;;;;;;;5106659;28;20565;-56
2022/04/16 14:48:49;;;;;;;3.30;1.80;;;;;;;;;;5093244;28;20196;-56
2022/04/16 14:51:17;;;;;;;2.58;1.88;;;;;;;;;;5107560;28;20263;-56
2022/04/16 14:53:44;;;;;;;2.60;1.90;;;;;;;;;;5114568;28;20218;-56
2022/04/16 14:56:11;;;;;;;2.60;1.80;;;;;;;;;;5111357;28;20475;-56
2022/04/16 14:58:39;;;;;;;2.58;2.08;;;;;;;;;;5112089;28;20194;-57
2022/04/16 15:01:06;;;;;;;2.38;1.92;;;;;;;;;;5113044;28;20207;-56
2022/04/16 15:03:34;;;;;;;2.80;1.80;;;;;;;;;;5111304;28;20550;-56
2022/04/16 15:06:03;;;;;;;2.95;2.05;;;;;;;;;;5114237;28;20202;-56
2022/04/16 15:08:30;;;;;;;3.20;2.05;;;;;;;;;;5113285;28;20195;-56
2022/04/16 15:10:58;;;;;;;2.03;1.83;;;;;;;;;;5113688;28;20203;-56
2022/04/16 15:13:25;;;;;;;2.40;1.90;;;;;;;;;;5091779;28;20242;-56
2022/04/16 15:15:52;;;;;;;2.00;1.83;;;;;;;;;;5100908;28;20202;-56
2022/04/16 15:18:20;;;;;;;2.45;1.90;;;;;;;;;;5091603;28;20335;-56